X  Fechar Metar - Info de Aeroporto     LIPX Verona-Villafranca Valerio Catullo Airport
Temperatura
81°F Temperatura
63°F Ptº Orvalho
54% Humidade



Vento
3 MPH
5 KM/H
1 M/S
3 NÓS



10°
N
Condições Atuais

Limpo Limpo
Pressão 1009.82 (hPa) - 29.82 (inHg)
Visibilidade 6 (milha) - 9.7 (km)
Aeroporto
Código-Aeropoto LIPX

Localização: Verona-Villafranca Valerio Catullo Airport
Distância: 0 (mi)

Metar:
LIPX 200750Z 01003KT 320V070 CAVOK 27/17 Q1010

Hora: 20-07-2024 07:50 CEST